Torredonjimeno, Spain
Current Conditions -  °F | °C
As of 1:30 PM on Wednesday 26 Nov 2014 (Local Time) from LEGR Reporting Station
Few Clouds Few Clouds  
Wind Chill: 64°   Ceiling: Unl
Heat Index: 64°   Visibility: 6mi
Dew Point: 46°   Wind: 2mph
Humidity: 52%   Direction: NA
Pressure: 29.88"   Gusts: NA
Location:  37.77°N, 3.96°W
Report Text: LEGR 261230Z VRB02KT 9999 FEW034 18/08 Q1012
Loading
Personal Weather Stations






























Interactive Weather Map New forecast layout! Learn more

10-Day Weather Forecast

Advertisements
Track Severe Weather on mobile